Time;durP1;ratioP1;P1;durP2;ratioP2;P2;SDS_P1;SDS_P2;PMS_P1;PMS_P2;Temp;Humidity;BMP_temperature;BMP_pressure;BME280_temperature;BME280_humidity;BME280_pressure;Samples;Min_cycle;Max_cycle;Signal;HPM_P1;HPM_P2
2022/06/10 00:00:29;;;;;;;6.97;3.20;;;8.60;99.90;;;;;;4181610;28;20170;-70
2022/06/10 00:02:30;;;;;;;7.07;3.07;;;8.50;99.90;;;;;;4174861;28;20414;-69
2022/06/10 00:04:32;;;;;;;8.57;3.00;;;8.50;99.90;;;;;;4164983;28;20471;-69
2022/06/10 00:06:33;;;;;;;10.77;3.20;;;8.50;99.90;;;;;;4164759;28;20228;-69
2022/06/10 00:08:37;;;;;;;7.00;3.63;;;8.60;99.90;;;;;;4165169;28;20446;-69
2022/06/10 00:10:39;;;;;;;6.07;3.07;;;8.60;99.90;;;;;;4165074;28;20181;-69
2022/06/10 00:12:41;;;;;;;7.00;3.00;;;8.60;99.90;;;;;;4165047;28;20931;-69
2022/06/10 00:14:42;;;;;;;5.80;3.10;;;8.60;99.90;;;;;;4165158;28;20442;-69
2022/06/10 00:16:42;;;;;;;5.17;3.00;;;8.60;99.90;;;;;;4164297;28;20557;-70
2022/06/10 00:18:44;;;;;;;7.73;3.53;;;8.60;99.90;;;;;;4165116;28;20168;-69
2022/06/10 00:20:45;;;;;;;7.73;2.57;;;8.50;99.90;;;;;;4164683;28;20220;-69
2022/06/10 00:22:46;;;;;;;7.47;3.20;;;8.40;99.90;;;;;;4164886;28;20461;-69
2022/06/10 00:24:46;;;;;;;5.90;2.80;;;8.50;99.90;;;;;;4164894;28;20449;-69
2022/06/10 00:26:47;;;;;;;11.87;3.37;;;8.40;99.90;;;;;;4164300;28;20551;-69
2022/06/10 00:28:48;;;;;;;7.80;3.47;;;8.40;99.90;;;;;;4164761;28;20227;-69
2022/06/10 00:30:49;;;;;;;7.43;3.43;;;8.30;99.90;;;;;;4164859;28;20652;-69
2022/06/10 00:32:50;;;;;;;8.17;3.27;;;8.30;99.90;;;;;;4165059;28;20473;-69
2022/06/10 00:34:51;;;;;;;3.77;2.80;;;8.20;99.90;;;;;;4164713;28;20951;-70
2022/06/10 00:36:51;;;;;;;5.13;4.03;;;8.30;99.90;;;;;;4171633;28;20283;-70
2022/06/10 00:38:52;;;;;;;5.53;2.90;;;8.30;99.90;;;;;;4181307;28;20185;-69
2022/06/10 00:40:55;;;;;;;5.63;3.20;;;8.30;99.90;;;;;;4181427;28;20180;-69
2022/06/10 00:42:56;;;;;;;7.80;3.20;;;8.30;99.90;;;;;;4181308;28;20523;-69
2022/06/10 00:44:57;;;;;;;7.10;3.30;;;8.30;99.90;;;;;;4180979;28;20454;-69
2022/06/10 00:46:58;;;;;;;5.13;2.87;;;8.20;99.90;;;;;;4180879;28;20419;-69
2022/06/10 00:49:01;;;;;;;7.03;3.30;;;8.20;99.90;;;;;;4179863;28;20633;-69
2022/06/10 00:51:19;;;;;;;9.63;3.40;;;8.20;99.90;;;;;;4181228;28;20183;-70
2022/06/10 00:53:26;;;;;;;4.00;3.10;;;8.20;99.90;;;;;;4179739;28;20476;-69
2022/06/10 00:55:29;;;;;;;4.67;2.97;;;8.10;99.90;;;;;;4180539;28;20435;-69
2022/06/10 00:57:40;;;;;;;6.57;3.00;;;8.00;99.90;;;;;;4179733;28;20884;-69
2022/06/10 00:59:48;;;;;;;6.43;2.77;;;7.90;99.90;;;;;;4179631;28;20407;-69
2022/06/10 01:01:57;;;;;;;7.23;3.43;;;7.90;99.90;;;;;;4180303;28;20410;-69
2022/06/10 01:03:59;;;;;;;4.77;3.00;;;7.80;99.90;;;;;;4180932;28;20789;-69
2022/06/10 01:06:00;;;;;;;5.80;3.00;;;7.80;99.90;;;;;;4180780;28;20417;-69
2022/06/10 01:08:09;;;;;;;5.03;3.20;;;7.70;99.90;;;;;;4181201;28;20403;-69
2022/06/10 01:10:14;;;;;;;5.13;3.30;;;7.70;99.90;;;;;;4181068;28;20415;-69
2022/06/10 01:12:33;;;;;;;5.03;2.73;;;7.60;99.90;;;;;;4180824;28;20418;-69
2022/06/10 01:14:46;;;;;;;3.23;2.77;;;7.60;99.90;;;;;;4180560;28;20432;-68
2022/06/10 01:17:01;;;;;;;3.10;2.50;;;7.40;99.90;;;;;;4180194;28;21321;-70
2022/06/10 01:19:10;;;;;;;5.07;2.70;;;7.40;99.90;;;;;;4180877;28;20517;-68
2022/06/10 01:21:24;;;;;;;4.90;2.80;;;7.40;99.90;;;;;;4180499;28;20461;-68
2022/06/10 01:23:54;;;;;;;5.33;3.00;;;7.40;99.90;;;;;;4180752;28;20414;-70
2022/06/10 01:26:25;;;;;;;8.70;3.20;;;7.30;99.90;;;;;;4180075;28;20411;-68
2022/06/10 01:28:57;;;;;;;4.07;2.67;;;7.30;99.90;;;;;;4180883;28;20993;-70
2022/06/10 01:31:16;;;;;;;4.33;3.30;;;7.20;99.90;;;;;;4180692;28;20425;-70
2022/06/10 01:33:38;;;;;;;5.67;3.13;;;7.20;99.90;;;;;;4180721;28;20411;-69
2022/06/10 01:36:01;;;;;;;8.73;3.27;;;7.20;99.90;;;;;;4179785;28;20403;-70
2022/06/10 01:38:19;;;;;;;7.00;3.23;;;7.20;99.90;;;;;;4180305;28;21011;-70
2022/06/10 01:40:33;;;;;;;7.70;3.87;;;7.40;99.90;;;;;;4180519;28;20464;-70
2022/06/10 01:42:45;;;;;;;10.10;3.17;;;7.40;99.90;;;;;;4180444;28;20502;-70
2022/06/10 01:45:04;;;;;;;5.33;3.43;;;7.40;99.90;;;;;;4180342;28;20439;-70
2022/06/10 01:47:21;;;;;;;4.83;3.03;;;7.50;99.90;;;;;;4180362;28;20446;-69
2022/06/10 01:49:26;;;;;;;6.53;3.43;;;7.40;99.90;;;;;;4180345;28;20933;-69
2022/06/10 01:52:00;;;;;;;5.17;3.17;;;7.40;99.90;;;;;;4180090;28;20477;-69
2022/06/10 01:54:42;;;;;;;7.47;3.73;;;7.40;99.90;;;;;;4180132;28;20433;-68
2022/06/10 01:56:47;;;;;;;7.57;4.13;;;7.30;99.90;;;;;;4178313;28;20459;-69
2022/06/10 01:58:56;;;;;;;4.30;2.70;;;7.30;99.90;;;;;;4180297;28;20793;-69
2022/06/10 02:01:02;;;;;;;8.23;3.77;;;7.30;99.90;;;;;;4180242;28;20778;-70
2022/06/10 02:03:19;;;;;;;9.43;3.03;;;7.20;99.90;;;;;;4180412;28;20415;-70
2022/06/10 02:05:22;;;;;;;5.13;2.70;;;7.10;99.90;;;;;;4171291;28;20436;-69
2022/06/10 02:07:57;;;;;;;3.80;2.63;;;7.10;99.90;;;;;;4163602;28;20412;-69
2022/06/10 02:10:14;;;;;;;5.03;3.20;;;7.10;99.90;;;;;;4163524;28;20411;-69
2022/06/10 02:12:27;;;;;;;7.90;3.63;;;7.10;99.90;;;;;;4162864;28;20419;-68
2022/06/10 02:14:36;;;;;;;4.87;3.30;;;7.10;99.90;;;;;;4162916;28;20444;-68
2022/06/10 02:16:42;;;;;;;5.27;2.70;;;7.10;99.90;;;;;;4162655;28;20814;-69
2022/06/10 02:18:52;;;;;;;5.03;2.90;;;7.00;99.90;;;;;;4160440;28;20514;-69
2022/06/10 02:20:59;;;;;;;5.97;3.40;;;7.10;99.90;;;;;;4163184;28;20438;-69
2022/06/10 02:23:04;;;;;;;7.27;3.20;;;7.10;99.90;;;;;;4163386;28;20411;-70
2022/06/10 02:25:11;;;;;;;4.03;2.57;;;7.10;99.90;;;;;;4162969;28;20943;-69
2022/06/10 02:27:18;;;;;;;6.33;3.73;;;7.10;99.90;;;;;;4162934;28;20419;-68
2022/06/10 02:29:22;;;;;;;7.57;3.87;;;7.10;99.90;;;;;;4163085;28;20404;-69
2022/06/10 02:31:29;;;;;;;8.10;3.53;;;7.10;99.90;;;;;;4163178;28;20420;-70
2022/06/10 02:33:30;;;;;;;6.67;4.20;;;7.30;99.90;;;;;;4163021;28;20428;-70
2022/06/10 02:35:41;;;;;;;8.60;4.30;;;7.30;99.90;;;;;;4161381;28;20470;-70
2022/06/10 02:37:57;;;;;;;13.00;4.20;;;7.30;99.90;;;;;;4169820;28;20218;-69
2022/06/10 02:40:01;;;;;;;8.13;3.90;;;7.30;99.90;;;;;;4179286;28;20418;-69
2022/06/10 02:42:19;;;;;;;6.90;3.77;;;7.30;99.90;;;;;;4179202;28;20518;-70
2022/06/10 02:44:50;;;;;;;6.70;3.73;;;7.30;99.90;;;;;;4178950;28;20509;-70
2022/06/10 02:46:57;;;;;;;6.47;3.93;;;7.30;99.90;;;;;;4178434;28;20498;-69
2022/06/10 02:49:07;;;;;;;6.33;3.70;;;7.20;99.90;;;;;;4179397;28;20410;-70
2022/06/10 02:51:07;;;;;;;12.27;4.50;;;7.20;99.90;;;;;;4179157;28;20414;-70
2022/06/10 02:53:08;;;;;;;6.03;3.53;;;7.10;99.90;;;;;;4179180;28;20766;-70
2022/06/10 02:55:21;;;;;;;7.13;3.83;;;7.10;99.90;;;;;;4178801;28;20707;-70
2022/06/10 03:01:11;;;;;;;8.00;3.03;;;7.10;99.90;;;;;;4179117;28;20461;-70
2022/06/10 03:02:44;;;;;;;6.20;3.37;;;7.00;99.90;;;;;;4176791;28;20448;-70
2022/06/10 03:04:50;;;;;;;10.80;3.37;;;7.00;99.90;;;;;;4160488;28;20450;-69
2022/06/10 03:07:22;;;;;;;6.97;3.20;;;7.00;99.90;;;;;;4176145;28;20422;-70
2022/06/10 03:09:50;;;;;;;7.53;3.83;;;7.00;99.90;;;;;;4179074;28;20514;-70
2022/06/10 03:12:09;;;;;;;7.40;3.77;;;6.90;99.90;;;;;;4179056;28;20394;-73
2022/06/10 03:14:21;;;;;;;8.43;3.63;;;6.90;99.90;;;;;;4178883;28;20430;-70
2022/06/10 03:16:46;;;;;;;5.80;3.77;;;6.90;99.90;;;;;;4178032;28;20415;-70
2022/06/10 03:19:07;;;;;;;7.40;3.83;;;7.00;99.90;;;;;;4178970;28;20434;-70
2022/06/10 03:21:16;;;;;;;9.47;3.87;;;7.00;99.90;;;;;;4178676;28;20455;-70
2022/06/10 03:23:26;;;;;;;7.17;3.83;;;7.10;99.90;;;;;;4178699;28;20413;-70
2022/06/10 03:25:48;;;;;;;9.00;4.00;;;7.10;99.90;;;;;;4177637;28;20945;-70
2022/06/10 03:27:59;;;;;;;8.40;4.60;;;7.10;99.90;;;;;;4179167;28;20438;-69
2022/06/10 03:30:06;;;;;;;7.50;4.07;;;7.10;99.90;;;;;;4178986;28;20410;-70
2022/06/10 03:32:16;;;;;;;7.40;3.77;;;7.20;99.90;;;;;;4178664;28;20414;-70
2022/06/10 03:34:19;;;;;;;7.27;3.53;;;7.20;99.90;;;;;;4178854;28;20458;-70
2022/06/10 03:36:23;;;;;;;8.90;3.80;;;7.10;99.90;;;;;;4177989;28;20777;-71
2022/06/10 03:38:24;;;;;;;5.50;2.97;;;7.00;99.90;;;;;;4178726;28;20403;-69
2022/06/10 03:40:28;;;;;;;3.87;3.07;;;6.90;99.90;;;;;;4178517;28;20469;-70
2022/06/10 03:42:28;;;;;;;6.03;3.60;;;6.90;99.90;;;;;;4178585;28;20181;-70
2022/06/10 03:44:31;;;;;;;5.03;3.33;;;6.90;99.90;;;;;;4178444;28;20793;-70
2022/06/10 03:46:33;;;;;;;4.13;3.20;;;6.90;99.90;;;;;;4177728;28;20176;-69
2022/06/10 03:48:38;;;;;;;5.83;2.93;;;6.90;99.90;;;;;;4178579;28;20784;-69
2022/06/10 03:50:39;;;;;;;6.67;4.00;;;6.80;99.90;;;;;;4178633;28;20426;-70
2022/06/10 03:52:42;;;;;;;7.90;3.17;;;6.80;99.90;;;;;;4178489;28;20424;-69
2022/06/10 03:54:42;;;;;;;5.57;3.23;;;6.80;99.90;;;;;;4178480;28;20431;-70
2022/06/10 03:56:43;;;;;;;6.87;4.43;;;6.80;99.90;;;;;;4177506;28;20500;-70
2022/06/10 03:58:43;;;;;;;3.40;2.90;;;6.70;99.90;;;;;;4178417;28;20211;-70
2022/06/10 04:00:44;;;;;;;7.37;3.30;;;6.70;99.90;;;;;;4166855;28;20185;-70
2022/06/10 04:02:45;;;;;;;4.57;3.07;;;6.70;99.90;;;;;;4161896;28;20169;-70
2022/06/10 04:04:46;;;;;;;6.57;3.17;;;6.70;99.90;;;;;;4161767;28;20471;-70
2022/06/10 04:06:47;;;;;;;5.90;3.43;;;6.80;99.90;;;;;;4161270;28;20177;-69
2022/06/10 04:08:47;;;;;;;6.33;3.40;;;6.80;99.90;;;;;;4161990;28;20669;-69
2022/06/10 04:10:48;;;;;;;6.23;3.03;;;6.90;99.90;;;;;;4162259;28;20546;-70
2022/06/10 04:12:49;;;;;;;5.63;3.03;;;6.90;99.90;;;;;;4161861;28;20213;-70
2022/06/10 04:14:49;;;;;;;8.00;3.13;;;7.00;99.90;;;;;;4161853;28;20209;-70
2022/06/10 04:16:50;;;;;;;6.30;3.50;;;7.00;99.90;;;;;;4161252;28;20471;-69
2022/06/10 04:18:51;;;;;;;5.70;3.00;;;7.00;99.90;;;;;;4162349;28;20272;-70
2022/06/10 04:20:51;;;;;;;4.07;2.80;;;7.10;99.90;;;;;;4162039;28;20197;-70
2022/06/10 04:22:52;;;;;;;7.97;3.63;;;7.20;99.90;;;;;;4161994;28;20260;-70
2022/06/10 04:24:54;;;;;;;7.73;3.03;;;7.20;99.90;;;;;;4161874;28;20189;-69
2022/06/10 04:26:54;;;;;;;3.87;3.00;;;7.20;99.90;;;;;;4161143;28;21228;-70
2022/06/10 04:28:55;;;;;;;5.27;3.13;;;7.20;99.90;;;;;;4161811;28;20407;-70
2022/06/10 04:30:56;;;;;;;6.00;2.97;;;7.10;99.90;;;;;;4162501;28;20181;-70
2022/06/10 04:32:57;;;;;;;5.47;3.20;;;7.10;99.90;;;;;;4161641;28;20300;-70
2022/06/10 04:34:57;;;;;;;6.23;2.87;;;7.20;99.90;;;;;;4162869;28;20668;-70
2022/06/10 04:36:58;;;;;;;4.50;3.67;;;7.20;99.90;;;;;;4164374;28;20455;-70
2022/06/10 04:38:59;;;;;;;6.00;3.40;;;7.20;99.90;;;;;;4166054;28;20179;-70
2022/06/10 04:40:59;;;;;;;6.30;3.47;;;7.20;99.90;;;;;;4166373;28;20181;-70
2022/06/10 04:43:00;;;;;;;6.37;3.60;;;7.20;99.90;;;;;;4166312;28;20185;-70
2022/06/10 04:45:00;;;;;;;8.10;3.10;;;7.30;99.90;;;;;;4165992;28;20208;-70
2022/06/10 04:47:02;;;;;;;8.17;3.00;;;7.40;99.90;;;;;;4165826;28;20264;-70
2022/06/10 04:49:04;;;;;;;6.43;3.47;;;7.40;99.90;;;;;;4166411;28;20683;-70
2022/06/10 04:51:04;;;;;;;5.07;2.90;;;7.40;99.90;;;;;;4166388;28;20918;-70
2022/06/10 04:53:05;;;;;;;6.20;2.90;;;7.40;99.90;;;;;;4174849;28;20438;-69
2022/06/10 04:55:06;;;;;;;7.97;3.03;;;7.40;99.90;;;;;;4182156;28;20197;-70
2022/06/10 04:57:07;;;;;;;3.67;2.50;;;7.50;99.90;;;;;;4180492;28;20216;-69
2022/06/10 04:59:09;;;;;;;5.63;2.73;;;7.50;99.90;;;;;;4183156;28;20411;-69
2022/06/10 05:01:10;;;;;;;4.93;3.03;;;7.50;99.90;;;;;;4182644;28;20414;-69
2022/06/10 05:03:11;;;;;;;4.13;3.07;;;7.50;99.90;;;;;;4182450;28;20514;-70
2022/06/10 05:05:11;;;;;;;6.13;2.90;;;7.50;99.90;;;;;;4182141;28;20635;-70
2022/06/10 05:07:12;;;;;;;5.03;3.10;;;7.60;99.90;;;;;;4181943;28;20266;-69
2022/06/10 05:09:12;;;;;;;3.47;2.83;;;7.60;99.90;;;;;;4182379;28;20535;-70
2022/06/10 05:11:14;;;;;;;6.67;2.60;;;7.60;99.90;;;;;;4180569;28;20180;-70
2022/06/10 05:13:20;;;;;;;6.37;3.33;;;7.70;99.90;;;;;;4180604;28;20173;-70
2022/06/10 05:15:21;;;;;;;7.23;3.17;;;7.70;99.90;;;;;;4179641;28;20492;-69
2022/06/10 05:17:22;;;;;;;8.57;3.37;;;7.70;99.90;;;;;;4180492;28;20547;-70
2022/06/10 05:19:23;;;;;;;4.87;2.67;;;7.80;99.90;;;;;;4180485;28;20972;-69
2022/06/10 05:21:24;;;;;;;5.60;3.60;;;7.90;99.90;;;;;;4180291;28;20550;-70
2022/06/10 05:23:25;;;;;;;6.43;2.70;;;8.00;99.90;;;;;;4180432;28;20428;-70
2022/06/10 05:25:25;;;;;;;9.07;3.17;;;8.00;99.90;;;;;;4179566;28;20330;-70
2022/06/10 05:27:26;;;;;;;4.50;3.07;;;8.10;99.90;;;;;;4180420;28;20469;-70
2022/06/10 05:29:26;;;;;;;6.10;2.97;;;8.10;99.90;;;;;;4180764;28;20563;-70
2022/06/10 05:31:27;;;;;;;5.90;3.20;;;8.20;99.90;;;;;;4179380;28;20186;-70
2022/06/10 05:34:44;;;;;;;3.60;3.10;;;8.20;99.90;;;;;;4180245;28;20211;-69
2022/06/10 05:35:48;;;;;;;6.43;3.27;;;8.20;99.90;;;;;;4179442;28;20242;-70
2022/06/10 05:37:49;;;;;;;5.10;2.60;;;8.30;99.90;;;;;;4176280;28;20478;-69
2022/06/10 05:39:51;;;;;;;7.10;3.00;;;8.40;99.90;;;;;;4179938;28;20182;-70
2022/06/10 05:42:07;;;;;;;7.60;3.60;;;8.40;99.90;;;;;;4180202;28;20422;-69
2022/06/10 05:44:09;;;;;;;4.67;3.33;;;8.50;99.90;;;;;;4180106;28;20188;-69
2022/06/10 05:46:10;;;;;;;8.57;3.67;;;8.60;99.90;;;;;;4179375;28;20960;-70
2022/06/10 05:48:11;;;;;;;4.37;3.23;;;8.70;99.90;;;;;;4179722;28;20407;-70
2022/06/10 05:50:27;;;;;;;6.00;3.47;;;8.90;99.90;;;;;;4179959;28;20693;-70
2022/06/10 05:52:30;;;;;;;8.23;3.83;;;9.00;99.90;;;;;;4179947;28;20663;-70
2022/06/10 05:54:30;;;;;;;9.20;3.53;;;9.10;99.90;;;;;;4180017;28;20442;-70
2022/06/10 05:56:31;;;;;;;6.20;3.83;;;9.20;99.90;;;;;;4179171;28;20423;-70
2022/06/10 05:58:32;;;;;;;9.53;3.87;;;9.30;99.90;;;;;;4179871;28;20572;-70
2022/06/10 06:00:32;;;;;;;6.47;3.87;;;9.40;99.90;;;;;;4179965;28;20901;-70
2022/06/10 06:02:33;;;;;;;4.67;3.90;;;9.50;99.90;;;;;;4179734;28;20179;-70
2022/06/10 06:04:33;;;;;;;7.33;3.80;;;9.60;99.90;;;;;;4176207;28;20208;-70
2022/06/10 06:06:34;;;;;;;8.20;3.67;;;9.70;99.90;;;;;;4178911;28;20203;-69
2022/06/10 06:08:35;;;;;;;7.27;3.40;;;9.80;99.90;;;;;;4179638;28;20179;-70
2022/06/10 06:10:36;;;;;;;4.83;3.30;;;9.80;99.90;;;;;;4179614;28;20210;-70
2022/06/10 06:12:37;;;;;;;6.07;3.20;;;9.90;99.90;;;;;;4179678;28;20168;-70
2022/06/10 06:14:37;;;;;;;6.07;2.80;;;10.00;99.90;;;;;;4179670;28;20274;-70
2022/06/10 06:16:39;;;;;;;5.43;2.67;;;10.10;99.90;;;;;;4178680;28;20172;-69
2022/06/10 06:18:40;;;;;;;4.53;2.40;;;10.10;99.90;;;;;;4179443;28;20179;-69
2022/06/10 06:20:41;;;;;;;3.93;2.30;;;10.10;99.90;;;;;;4179304;28;20559;-69
2022/06/10 06:22:41;;;;;;;4.07;2.30;;;10.10;99.90;;;;;;4179315;28;20176;-69
2022/06/10 06:24:42;;;;;;;8.17;2.27;;;10.10;99.90;;;;;;4179225;28;20198;-69
2022/06/10 06:26:43;;;;;;;7.20;2.77;;;10.20;99.90;;;;;;4178562;28;20183;-69
2022/06/10 06:28:44;;;;;;;5.10;2.40;;;10.30;99.90;;;;;;4179201;28;20207;-69
2022/06/10 06:30:45;;;;;;;3.50;2.07;;;10.30;99.90;;;;;;4179027;28;20198;-69
2022/06/10 06:32:45;;;;;;;4.43;2.23;;;10.40;99.90;;;;;;4179094;28;20176;-69
2022/06/10 06:34:46;;;;;;;8.00;2.17;;;10.50;99.90;;;;;;4179026;28;20195;-69
2022/06/10 06:36:49;;;;;;;3.63;1.83;;;10.70;99.90;;;;;;4178362;28;20672;-69
2022/06/10 06:38:50;;;;;;;6.07;1.77;;;10.70;99.90;;;;;;4179268;28;20176;-68
2022/06/10 06:40:51;;;;;;;4.53;2.00;;;10.80;99.90;;;;;;4179360;28;20172;-70
2022/06/10 06:42:51;;;;;;;5.60;2.30;;;10.90;99.90;;;;;;4179236;28;20592;-70
2022/06/10 06:44:52;;;;;;;4.97;1.80;;;11.00;99.90;;;;;;4179129;28;20280;-70
2022/06/10 06:46:52;;;;;;;6.23;1.90;;;11.10;99.90;;;;;;4178472;28;20730;-70
2022/06/10 06:48:54;;;;;;;3.97;1.50;;;11.20;99.50;;;;;;4179149;28;20212;-71
2022/06/10 06:50:54;;;;;;;3.37;1.60;;;11.30;99.30;;;;;;4179080;28;20180;-69
2022/06/10 06:52:55;;;;;;;4.73;2.13;;;11.50;97.70;;;;;;4178509;28;20173;-69
2022/06/10 06:54:56;;;;;;;3.30;1.60;;;11.80;97.40;;;;;;4178733;28;20242;-68
2022/06/10 06:56:57;;;;;;;3.10;1.40;;;12.10;95.40;;;;;;4176973;28;20279;-69
2022/06/10 06:58:57;;;;;;;3.70;1.80;;;12.20;95.30;;;;;;4178303;28;20256;-69
2022/06/10 07:00:58;;;;;;;3.27;1.37;;;12.50;92.60;;;;;;4177987;28;20255;-69
2022/06/10 07:02:59;;;;;;;5.27;1.60;;;12.70;93.20;;;;;;4170135;28;21030;-70
2022/06/10 07:04:59;;;;;;;4.13;1.60;;;12.70;94.00;;;;;;4162938;28;20205;-70
2022/06/10 07:07:00;;;;;;;3.17;1.47;;;12.80;93.30;;;;;;4161813;28;20554;-71
2022/06/10 07:09:01;;;;;;;4.13;1.50;;;12.90;93.20;;;;;;4162204;28;20534;-70
2022/06/10 07:11:04;;;;;;;4.07;1.70;;;13.20;92.90;;;;;;4162207;28;20177;-69
2022/06/10 07:13:05;;;;;;;2.60;1.30;;;13.20;92.60;;;;;;4162149;28;20215;-68
2022/06/10 07:15:06;;;;;;;3.87;1.40;;;13.20;91.80;;;;;;4160464;28;20197;-68
2022/06/10 07:17:06;;;;;;;5.17;1.60;;;13.30;90.40;;;;;;4161629;28;20229;-68
2022/06/10 07:19:08;;;;;;;5.67;1.50;;;13.40;88.80;;;;;;4161982;28;20581;-69
2022/06/10 07:21:08;;;;;;;2.90;1.30;;;13.70;86.80;;;;;;4161831;28;20216;-68
2022/06/10 07:23:09;;;;;;;4.70;1.50;;;13.80;86.40;;;;;;4161946;28;20184;-69
2022/06/10 07:25:10;;;;;;;3.20;1.20;;;13.80;83.30;;;;;;4161700;28;20196;-70
2022/06/10 07:27:11;;;;;;;4.87;1.23;;;14.00;84.50;;;;;;4161606;28;20256;-68
2022/06/10 07:29:12;;;;;;;3.23;1.40;;;14.10;81.70;;;;;;4161877;28;20192;-68
2022/06/10 07:31:12;;;;;;;5.83;1.43;;;14.20;81.40;;;;;;4161793;28;20932;-70
2022/06/10 07:33:13;;;;;;;5.00;1.60;;;14.30;81.30;;;;;;4161965;28;20185;-70
2022/06/10 07:35:14;;;;;;;6.27;1.70;;;14.30;81.30;;;;;;4161612;28;20204;-70
2022/06/10 07:37:15;;;;;;;5.70;1.20;;;14.40;82.90;;;;;;4161497;28;20553;-70
2022/06/10 07:39:16;;;;;;;4.53;1.57;;;14.60;78.00;;;;;;4162049;28;20184;-70
2022/06/10 07:43:35;;;;;;;5.03;1.50;;;15.00;73.90;;;;;;4162044;28;20184;-73
2022/06/10 07:45:36;;;;;;;2.10;1.30;;;15.00;79.60;;;;;;4161329;28;20279;-72
2022/06/10 07:47:37;;;;;;;2.83;1.40;;;15.10;73.10;;;;;;4161851;28;20173;-72
2022/06/10 07:49:38;;;;;;;2.90;1.33;;;15.10;75.50;;;;;;4162016;28;20187;-73
2022/06/10 07:51:38;;;;;;;3.70;1.40;;;15.10;69.30;;;;;;4161205;28;20189;-72
2022/06/10 07:53:41;;;;;;;6.10;1.40;;;15.10;71.50;;;;;;4164632;28;20184;-72
2022/06/10 07:55:44;;;;;;;2.57;1.37;;;15.20;68.60;;;;;;4171739;28;20691;-72
2022/06/10 07:57:44;;;;;;;3.90;1.23;;;15.30;67.70;;;;;;4177834;28;20200;-72
2022/06/10 07:59:45;;;;;;;3.47;1.67;;;15.50;62.60;;;;;;4177959;28;20191;-72
2022/06/10 08:01:46;;;;;;;3.77;1.47;;;15.70;66.10;;;;;;4178290;28;20678;-72
2022/06/10 08:03:47;;;;;;;3.50;1.40;;;15.80;65.20;;;;;;4176291;28;20180;-72
2022/06/10 08:05:48;;;;;;;4.47;1.30;;;15.90;61.40;;;;;;4161544;28;20550;-73
2022/06/10 08:07:50;;;;;;;4.10;1.00;;;16.00;60.20;;;;;;4161979;28;20267;-72
2022/06/10 08:09:50;;;;;;;4.53;1.17;;;16.00;71.00;;;;;;4161885;28;20169;-72
2022/06/10 08:11:52;;;;;;;3.73;1.20;;;16.00;61.50;;;;;;4163557;28;20204;-72
2022/06/10 08:13:53;;;;;;;1.97;0.90;;;15.80;57.90;;;;;;4164863;28;20226;-72
2022/06/10 08:15:54;;;;;;;3.10;1.07;;;15.70;59.00;;;;;;4164268;28;20174;-72
2022/06/10 08:17:57;;;;;;;2.33;1.27;;;15.70;59.20;;;;;;4164768;28;20696;-73
2022/06/10 08:20:01;;;;;;;2.20;1.10;;;15.60;58.90;;;;;;4164610;28;20778;-73
2022/06/10 08:24:21;;;;;;;6.57;1.40;;;15.90;55.90;;;;;;4164531;28;20204;-73
2022/06/10 08:26:22;;;;;;;1.70;1.00;;;16.00;55.00;;;;;;4162513;28;20169;-72
2022/06/10 08:28:24;;;;;;;4.87;1.17;;;16.10;54.40;;;;;;4164588;28;20177;-72
2022/06/10 08:30:25;;;;;;;5.03;1.57;;;16.40;55.20;;;;;;4164628;28;20166;-73
2022/06/10 08:32:25;;;;;;;2.07;1.10;;;16.60;58.00;;;;;;4164482;28;20193;-72
2022/06/10 08:34:26;;;;;;;6.33;1.40;;;16.50;56.10;;;;;;4164447;28;20251;-72
2022/06/10 08:36:26;;;;;;;5.97;1.20;;;16.50;52.50;;;;;;4163828;28;20207;-71
2022/06/10 08:38:27;;;;;;;2.27;1.23;;;16.40;52.70;;;;;;4164426;28;20235;-72
2022/06/10 08:40:48;;;;;;;2.50;1.03;;;16.70;52.50;;;;;;4164470;28;20181;-72
2022/06/10 08:42:51;;;;;;;3.00;1.10;;;16.80;52.50;;;;;;4164339;28;20243;-71
2022/06/10 08:44:53;;;;;;;3.43;1.20;;;16.80;52.30;;;;;;4164480;28;20193;-71
2022/06/10 08:47:22;;;;;;;2.23;1.10;;;16.80;52.70;;;;;;4163779;28;20182;-71
2022/06/10 08:50:00;;;;;;;2.80;1.10;;;16.90;53.00;;;;;;4164320;28;20212;-71
2022/06/10 08:52:26;;;;;;;5.73;1.30;;;16.90;51.00;;;;;;4164273;28;20177;-72
2022/06/10 08:54:46;;;;;;;3.70;1.10;;;17.00;50.40;;;;;;4168875;28;20216;-72
2022/06/10 08:56:50;;;;;;;4.53;1.30;;;17.20;52.50;;;;;;4182801;28;20619;-71
2022/06/10 08:58:59;;;;;;;3.03;1.10;;;17.20;52.10;;;;;;4182928;28;20577;-71
2022/06/10 09:01:05;;;;;;;2.60;1.23;;;17.20;51.90;;;;;;4182244;28;20179;-72
2022/06/10 09:03:21;;;;;;;2.37;1.10;;;17.10;51.20;;;;;;4183140;28;20526;-72
2022/06/10 09:05:25;;;;;;;1.73;1.13;;;17.20;51.80;;;;;;4182615;28;20239;-72
2022/06/10 09:07:51;;;;;;;2.67;1.37;;;17.30;51.80;;;;;;4182987;28;20176;-73
2022/06/10 09:09:52;;;;;;;3.33;1.30;;;17.20;51.60;;;;;;4182762;28;20208;-73
2022/06/10 09:12:14;;;;;;;4.60;1.30;;;17.00;52.70;;;;;;4183106;28;20169;-73
2022/06/10 09:14:18;;;;;;;2.93;1.10;;;16.80;56.30;;;;;;4183122;28;20196;-73
2022/06/10 09:16:35;;;;;;;2.93;1.10;;;16.90;52.70;;;;;;4182381;28;20175;-73
2022/06/10 09:18:57;;;;;;;5.07;1.47;;;17.20;53.00;;;;;;4182797;28;20192;-72
2022/06/10 09:21:07;;;;;;;2.40;1.10;;;17.20;58.80;;;;;;4183033;28;20259;-72
2022/06/10 09:23:15;;;;;;;4.43;1.30;;;17.00;63.40;;;;;;4182975;28;20184;-72
2022/06/10 09:25:42;;;;;;;3.97;1.10;;;16.90;54.60;;;;;;4182834;28;20525;-72
2022/06/10 09:27:50;;;;;;;2.03;1.20;;;17.10;51.20;;;;;;4182500;28;20207;-72
2022/06/10 09:29:51;;;;;;;4.47;1.57;;;17.30;51.40;;;;;;4182978;28;20229;-72
2022/06/10 09:32:10;;;;;;;2.43;1.27;;;17.60;53.20;;;;;;4182701;28;20181;-72
2022/06/10 09:34:28;;;;;;;1.80;1.30;;;17.90;56.90;;;;;;4182462;28;20214;-72
2022/06/10 09:36:38;;;;;;;5.43;1.70;;;18.40;49.50;;;;;;4181669;28;20323;-71
2022/06/10 09:38:54;;;;;;;2.40;1.30;;;18.80;51.90;;;;;;4183121;28;20278;-72
2022/06/10 09:41:17;;;;;;;3.57;1.20;;;18.90;48.70;;;;;;4182790;28;20841;-72
2022/06/10 09:43:35;;;;;;;1.73;1.27;;;18.70;49.70;;;;;;4182483;28;20176;-72
2022/06/10 09:45:45;;;;;;;2.13;1.30;;;18.60;46.30;;;;;;4181953;28;20192;-72
2022/06/10 09:47:55;;;;;;;4.00;1.10;;;18.20;49.40;;;;;;4182689;28;20183;-72
2022/06/10 09:50:09;;;;;;;1.67;1.10;;;18.20;49.20;;;;;;4182549;28;20180;-72
2022/06/10 09:52:49;;;;;;;2.97;1.27;;;18.70;47.50;;;;;;4182450;28;20191;-72
2022/06/10 09:54:55;;;;;;;2.80;1.30;;;19.20;47.20;;;;;;4180541;28;20203;-71
2022/06/10 09:57:03;;;;;;;2.23;1.30;;;19.10;45.20;;;;;;4166360;28;20213;-71
2022/06/10 09:59:57;;;;;;;5.33;1.20;;;19.40;45.90;;;;;;4165418;28;20176;-71
2022/06/10 10:02:03;;;;;;;2.97;1.33;;;19.30;45.40;;;;;;4130985;28;20218;-72
2022/06/10 10:04:40;;;;;;;2.90;1.20;;;18.60;45.10;;;;;;4130722;28;20194;-71
2022/06/10 10:07:00;;;;;;;2.50;1.30;;;18.50;44.90;;;;;;4139852;28;20201;-70
2022/06/10 10:09:20;;;;;;;3.43;0.93;;;18.80;44.70;;;;;;4164471;28;20691;-71
2022/06/10 10:11:30;;;;;;;2.27;1.00;;;19.40;42.80;;;;;;4165607;28;20176;-71
2022/06/10 10:13:58;;;;;;;3.57;1.07;;;19.70;47.70;;;;;;4165050;28;20181;-71
2022/06/10 10:16:20;;;;;;;2.63;1.10;;;20.00;42.30;;;;;;4164602;28;20177;-70
2022/06/10 10:18:53;;;;;;;4.30;1.20;;;20.80;40.20;;;;;;4165488;28;20226;-72
2022/06/10 10:21:07;;;;;;;2.30;1.30;;;21.20;43.30;;;;;;4165209;28;20191;-72
2022/06/10 10:23:22;;;;;;;3.70;1.20;;;21.50;38.40;;;;;;4165199;28;20176;-71
2022/06/10 10:25:25;;;;;;;2.00;1.30;;;20.60;38.40;;;;;;4164554;28;20192;-71
2022/06/10 10:27:27;;;;;;;3.87;1.20;;;20.70;40.60;;;;;;4164728;28;20177;-71
2022/06/10 10:29:36;;;;;;;3.07;1.00;;;21.00;39.40;;;;;;4164610;28;20217;-72
2022/06/10 10:32:04;;;;;;;2.70;1.57;;;21.50;38.30;;;;;;4164789;28;20189;-72
2022/06/10 10:34:05;;;;;;;1.00;0.90;;;21.40;36.80;;;;;;4162283;28;20220;-71
2022/06/10 10:36:32;;;;;;;2.17;1.10;;;22.20;37.30;;;;;;4162043;28;20272;-72
2022/06/10 10:38:44;;;;;;;3.33;1.37;;;22.90;37.50;;;;;;4156880;28;20748;-71
2022/06/10 10:40:47;;;;;;;2.83;1.20;;;23.30;37.30;;;;;;4162675;28;20681;-72
2022/06/10 10:42:53;;;;;;;3.00;1.90;;;23.50;37.40;;;;;;4162413;28;20262;-71
2022/06/10 10:45:07;;;;;;;3.83;1.43;;;23.60;33.90;;;;;;4162677;28;20197;-71
2022/06/10 10:47:11;;;;;;;2.17;1.30;;;22.70;35.00;;;;;;4162465;28;20177;-71
2022/06/10 10:49:28;;;;;;;2.93;1.30;;;22.40;33.50;;;;;;4162573;28;20188;-71
2022/06/10 10:51:40;;;;;;;2.23;1.30;;;23.00;32.70;;;;;;4162625;28;20181;-71
2022/06/10 10:53:42;;;;;;;2.43;1.30;;;24.10;36.50;;;;;;4162395;28;20177;-71
2022/06/10 10:55:50;;;;;;;3.50;1.53;;;24.90;30.60;;;;;;4161914;28;20256;-70
2022/06/10 10:58:04;;;;;;;1.80;1.27;;;24.40;30.40;;;;;;4162373;28;20608;-71
2022/06/10 11:00:14;;;;;;;4.93;1.90;;;24.40;29.90;;;;;;4176478;28;20180;-71
2022/06/10 11:02:50;;;;;;;2.50;1.40;;;25.20;28.80;;;;;;4178804;28;20234;-71
2022/06/10 11:04:51;;;;;;;2.60;2.37;;;26.80;27.10;;;;;;4174427;28;20220;-70
2022/06/10 11:07:00;;;;;;;2.47;2.00;;;25.40;28.70;;;;;;4178347;28;20654;-70
2022/06/10 11:09:23;;;;;;;1.73;1.53;;;24.50;30.80;;;;;;4178931;28;20175;-70
2022/06/10 11:11:30;;;;;;;5.53;3.87;;;23.80;31.60;;;;;;4178862;28;20196;-70
2022/06/10 11:13:40;;;;;;;4.20;1.90;;;24.60;30.20;;;;;;4178904;28;20163;-70